Time;durP1;ratioP1;P1;durP2;ratioP2;P2;SDS_P1;SDS_P2;PMS_P1;PMS_P2;Temp;Humidity;BMP_temperature;BMP_pressure;BME280_temperature;BME280_humidity;BME280_pressure;Samples;Min_cycle;Max_cycle;Signal;HPM_P1;HPM_P2
2022/07/24 00:00:44;;;;;;;6.70;6.00;;;;;20.40;94591.00;;;;7389392;19;20157;-73
2022/07/24 00:03:19;;;;;;;7.10;5.97;;;;;20.50;94597.00;;;;7397742;19;20494;-73
2022/07/24 00:05:54;;;;;;;7.47;5.63;;;;;20.50;94598.00;;;;7396235;19;20187;-74
2022/07/24 00:08:28;;;;;;;7.57;6.05;;;;;20.30;94601.00;;;;7399464;19;20176;-74
2022/07/24 00:10:57;;;;;;;5.90;5.25;;;;;20.40;94596.00;;;;7399217;19;20626;-74
2022/07/24 00:13:24;;;;;;;7.05;5.47;;;;;20.30;94604.00;;;;7400923;19;20583;-73
2022/07/24 00:15:58;;;;;;;6.65;5.88;;;;;20.30;94597.00;;;;7399905;19;20143;-74
2022/07/24 00:18:26;;;;;;;7.40;5.53;;;;;20.30;94589.00;;;;7400133;19;20129;-73
2022/07/24 00:20:54;;;;;;;8.38;5.63;;;;;20.40;94592.00;;;;7397310;19;20595;-73
2022/07/24 00:23:28;;;;;;;6.55;5.53;;;;;20.30;94599.00;;;;7401019;19;20133;-73
2022/07/24 00:25:55;;;;;;;8.18;6.00;;;;;20.20;94594.00;;;;7397592;19;20149;-73
2022/07/24 00:28:23;;;;;;;6.57;5.97;;;;;20.20;94589.00;;;;7396909;19;20262;-73
2022/07/24 00:30:57;;;;;;;8.85;5.68;;;;;20.30;94589.00;;;;7397593;19;20207;-73
2022/07/24 00:33:25;;;;;;;7.57;5.70;;;;;20.30;94588.00;;;;7400249;19;20132;-73
2022/07/24 00:35:53;;;;;;;7.00;5.68;;;;;20.20;94586.00;;;;7398157;19;20128;-74
2022/07/24 00:38:26;;;;;;;6.45;5.53;;;;;20.20;94584.00;;;;7398010;19;20202;-73
2022/07/24 00:40:54;;;;;;;5.88;5.38;;;;;20.30;94580.00;;;;7396564;19;20647;-73
2022/07/24 00:43:22;;;;;;;6.72;5.60;;;;;20.20;94571.00;;;;7400326;19;20595;-73
2022/07/24 00:45:56;;;;;;;7.43;6.20;;;;;20.20;94578.00;;;;7398178;19;20468;-74
2022/07/24 00:48:25;;;;;;;7.05;6.05;;;;;20.10;94584.00;;;;7398572;19;20156;-73
2022/07/24 00:50:59;;;;;;;10.27;6.03;;;;;20.00;94577.00;;;;7397758;19;20201;-74
2022/07/24 00:53:33;;;;;;;6.07;5.47;;;;;20.00;94578.00;;;;7395037;19;20655;-73
2022/07/24 00:56:02;;;;;;;6.00;5.50;;;;;19.90;94574.00;;;;7398833;19;20152;-74
2022/07/24 00:58:29;;;;;;;6.68;5.88;;;;;20.00;94582.00;;;;7396903;19;20149;-74
2022/07/24 01:01:04;;;;;;;6.32;5.72;;;;;19.90;94579.00;;;;7396349;19;20410;-74
2022/07/24 01:03:31;;;;;;;7.60;5.20;;;;;20.00;94587.00;;;;7397359;19;20146;-73
2022/07/24 01:05:59;;;;;;;7.32;6.00;;;;;20.00;94573.00;;;;7394694;19;20176;-74
2022/07/24 01:08:43;;;;;;;6.75;6.00;;;;;20.00;94568.00;;;;7396740;19;20499;-74
2022/07/24 01:11:11;;;;;;;6.40;5.80;;;;;20.00;94578.00;;;;7397966;19;20208;-75
2022/07/24 01:13:46;;;;;;;8.82;5.78;;;;;20.10;94570.00;;;;7398907;19;20128;-73
2022/07/24 01:16:15;;;;;;;7.38;5.60;;;;;20.00;94576.00;;;;7395993;19;20208;-74
2022/07/24 01:18:42;;;;;;;8.15;5.47;;;;;20.00;94574.00;;;;7400252;19;20140;-74
2022/07/24 01:21:16;;;;;;;7.65;5.88;;;;;20.00;94569.00;;;;7396454;19;20140;-75
2022/07/24 01:23:46;;;;;;;7.82;5.85;;;;;20.00;94571.00;;;;7394947;19;20169;-73
2022/07/24 01:26:13;;;;;;;6.57;5.60;;;;;19.90;94569.00;;;;7395631;19;20168;-74
2022/07/24 01:28:47;;;;;;;6.05;5.47;;;;;19.80;94565.00;;;;7399249;19;20128;-74
2022/07/24 01:31:15;;;;;;;6.53;5.63;;;;;19.80;94568.00;;;;7397324;19;20271;-75
2022/07/24 01:33:43;;;;;;;6.18;5.35;;;;;19.80;94574.00;;;;7394650;19;20141;-74
2022/07/24 01:36:16;;;;;;;6.25;5.47;;;;;19.80;94570.00;;;;7395007;19;20136;-74
2022/07/24 01:38:44;;;;;;;6.82;6.00;;;;;19.80;94568.00;;;;7396587;19;20161;-74
2022/07/24 01:41:11;;;;;;;6.65;4.90;;;;;19.80;94568.00;;;;7394861;19;20132;-74
2022/07/24 01:43:46;;;;;;;8.65;5.50;;;;;19.90;94573.00;;;;7396043;19;20583;-74
2022/07/24 01:46:13;;;;;;;6.30;5.40;;;;;19.90;94576.00;;;;7395303;19;20158;-75
2022/07/24 01:48:42;;;;;;;6.35;5.75;;;;;19.80;94572.00;;;;7395140;19;20610;-74
2022/07/24 01:51:17;;;;;;;5.95;5.32;;;;;19.70;94566.00;;;;7397667;19;20144;-75
2022/07/24 01:53:45;;;;;;;6.72;5.90;;;;;19.70;94558.00;;;;7395123;19;20623;-74
2022/07/24 01:56:12;;;;;;;6.80;5.00;;;;;19.60;94566.00;;;;7394310;19;20145;-73
2022/07/24 01:58:48;;;;;;;6.10;5.45;;;;;19.70;94571.00;;;;7396545;19;20139;-74
2022/07/24 02:01:16;;;;;;;7.10;5.53;;;;;19.80;94556.00;;;;7394890;19;20152;-74
2022/07/24 02:03:44;;;;;;;8.88;5.85;;;;;19.70;94564.00;;;;7392349;19;20744;-75
2022/07/24 02:06:32;;;;;;;6.28;5.57;;;;;19.50;94562.00;;;;7394138;19;20172;-74
2022/07/24 02:09:07;;;;;;;6.45;5.85;;;;;19.50;94561.00;;;;7397083;19;20153;-74
2022/07/24 02:11:40;;;;;;;7.45;5.95;;;;;19.40;94561.00;;;;7393641;19;20232;-74
2022/07/24 02:14:08;;;;;;;6.88;5.50;;;;;19.30;94557.00;;;;7393289;19;20259;-74
2022/07/24 02:16:36;;;;;;;7.10;5.90;;;;;19.50;94557.00;;;;7395245;19;20125;-75
2022/07/24 02:19:10;;;;;;;6.68;5.97;;;;;19.30;94562.00;;;;7397008;19;20125;-75
2022/07/24 02:21:38;;;;;;;6.47;5.85;;;;;19.30;94559.00;;;;7394157;19;20849;-74
2022/07/24 02:24:06;;;;;;;6.38;5.65;;;;;19.30;94560.00;;;;7393856;19;20149;-75
2022/07/24 02:26:39;;;;;;;6.45;5.75;;;;;19.50;94552.00;;;;7397207;19;20132;-74
2022/07/24 02:29:07;;;;;;;8.77;6.30;;;;;19.70;94559.00;;;;7396728;19;20133;-74
2022/07/24 02:31:35;;;;;;;7.93;5.82;;;;;19.60;94559.00;;;;7392552;19;20211;-74
2022/07/24 02:34:10;;;;;;;6.93;6.20;;;;;19.70;94559.00;;;;7391606;19;20155;-74
2022/07/24 02:36:37;;;;;;;6.03;5.40;;;;;19.60;94559.00;;;;7393512;19;20603;-74
2022/07/24 02:39:05;;;;;;;6.63;5.80;;;;;19.70;94561.00;;;;7395319;19;20253;-74
2022/07/24 02:41:39;;;;;;;8.38;6.20;;;;;19.70;94558.00;;;;7391741;19;20165;-73
2022/07/24 02:44:07;;;;;;;6.50;5.75;;;;;19.60;94557.00;;;;7391741;19;20615;-74
2022/07/24 02:46:34;;;;;;;8.38;6.03;;;;;19.80;94557.00;;;;7393114;19;20133;-74
2022/07/24 02:49:08;;;;;;;6.32;5.70;;;;;19.70;94560.00;;;;7395212;19;20155;-74
2022/07/24 02:51:37;;;;;;;10.07;6.28;;;;;19.90;94557.00;;;;7394136;19;20144;-74
2022/07/24 02:54:04;;;;;;;9.07;6.20;;;;;19.80;94554.00;;;;7391887;19;20153;-75
2022/07/24 02:56:38;;;;;;;6.68;6.00;;;;;19.80;94568.00;;;;7394564;19;20152;-75
2022/07/24 02:59:06;;;;;;;6.53;5.90;;;;;19.90;94562.00;;;;7394609;19;20134;-74
2022/07/24 03:01:37;;;;;;;6.78;6.10;;;;;19.80;94562.00;;;;7389362;19;20140;-74
2022/07/24 03:04:10;;;;;;;6.78;6.05;;;;;19.80;94559.00;;;;7391710;19;20617;-74
2022/07/24 03:06:45;;;;;;;7.68;6.28;;;;;19.90;94552.00;;;;7391986;19;20631;-74
2022/07/24 03:09:19;;;;;;;8.13;6.32;;;;;19.80;94557.00;;;;7394259;19;20140;-73
2022/07/24 03:11:47;;;;;;;9.57;5.95;;;;;19.60;94557.00;;;;7391547;19;20168;-75
2022/07/24 03:14:14;;;;;;;6.63;5.93;;;;;19.70;94561.00;;;;7392422;19;20167;-74
2022/07/24 03:16:48;;;;;;;8.73;6.30;;;;;19.80;94564.00;;;;7393937;19;20161;-74
2022/07/24 03:19:16;;;;;;;9.68;6.35;;;;;19.80;94564.00;;;;7393363;19;20619;-73
2022/07/24 03:21:44;;;;;;;7.78;6.10;;;;;19.70;94563.00;;;;7390501;19;20509;-73
2022/07/24 03:24:17;;;;;;;8.77;6.72;;;;;19.50;94557.00;;;;7391464;19;20172;-73
2022/07/24 03:26:45;;;;;;;8.32;6.25;;;;;19.70;94564.00;;;;7393556;19;20212;-73
2022/07/24 03:29:13;;;;;;;6.82;5.65;;;;;19.70;94563.00;;;;7394924;19;20170;-73
2022/07/24 03:31:47;;;;;;;6.90;6.10;;;;;19.60;94564.00;;;;7392514;19;20166;-73
2022/07/24 03:34:14;;;;;;;7.43;6.32;;;;;19.60;94569.00;;;;7390635;19;20167;-74
2022/07/24 03:36:42;;;;;;;9.43;6.07;;;;;19.70;94563.00;;;;7390895;19;20602;-73
2022/07/24 03:39:16;;;;;;;7.68;6.47;;;;;19.70;94553.00;;;;7393880;19;20496;-74
2022/07/24 03:41:43;;;;;;;9.60;7.07;;;;;19.70;94557.00;;;;7388903;19;20174;-73
2022/07/24 03:44:11;;;;;;;6.80;6.18;;;;;19.80;94556.00;;;;7391682;19;20144;-73
2022/07/24 03:46:45;;;;;;;8.55;6.57;;;;;19.70;94563.00;;;;7391583;19;20151;-74
2022/07/24 03:49:13;;;;;;;8.80;6.47;;;;;19.50;94567.00;;;;7393832;19;20137;-73
2022/07/24 03:51:41;;;;;;;7.82;6.22;;;;;19.70;94570.00;;;;7391358;19;20459;-73
2022/07/24 03:54:16;;;;;;;8.68;6.72;;;;;19.70;94567.00;;;;7392734;19;20136;-73
2022/07/24 03:56:44;;;;;;;10.15;6.70;;;;;19.70;94566.00;;;;7392850;19;20896;-73
2022/07/24 03:59:11;;;;;;;6.72;6.07;;;;;19.50;94576.00;;;;7394441;19;20667;-74
2022/07/24 04:01:46;;;;;;;7.90;6.43;;;;;19.50;94571.00;;;;7390466;19;20199;-73
2022/07/24 04:04:14;;;;;;;7.63;6.88;;;;;19.60;94567.00;;;;7390540;19;20133;-73
2022/07/24 04:06:41;;;;;;;8.18;6.65;;;;;19.70;94575.00;;;;7390267;19;20176;-73
2022/07/24 04:09:22;;;;;;;6.72;5.70;;;;;19.60;94578.00;;;;7393707;19;20121;-73
2022/07/24 04:11:59;;;;;;;9.90;6.97;;;;;19.80;94570.00;;;;7391062;19;20613;-73
2022/07/24 04:14:33;;;;;;;11.18;6.97;;;;;19.90;94576.00;;;;7391446;19;20204;-73
2022/07/24 04:17:01;;;;;;;7.90;6.47;;;;;20.00;94584.00;;;;7393361;19;20152;-73
2022/07/24 04:19:29;;;;;;;8.20;6.72;;;;;19.90;94590.00;;;;7389644;19;20473;-73
2022/07/24 04:22:03;;;;;;;7.55;6.55;;;;;20.30;94584.00;;;;7388702;19;20200;-73
2022/07/24 04:24:32;;;;;;;7.15;6.20;;;;;20.20;94584.00;;;;7392000;19;20649;-73
2022/07/24 04:27:00;;;;;;;7.03;6.22;;;;;20.10;94595.00;;;;7385174;19;20129;-75
2022/07/24 04:29:34;;;;;;;9.98;6.63;;;;;20.10;94583.00;;;;7389926;19;20696;-74
2022/07/24 04:32:02;;;;;;;6.75;6.15;;;;;20.00;94584.00;;;;7388421;19;20144;-75
2022/07/24 04:34:29;;;;;;;7.35;6.40;;;;;20.10;94581.00;;;;7390730;19;20159;-74
2022/07/24 04:37:03;;;;;;;9.32;6.50;;;;;20.30;94584.00;;;;7389808;19;20151;-73
2022/07/24 04:39:31;;;;;;;7.10;6.40;;;;;20.40;94582.00;;;;7387394;19;20663;-74
2022/07/24 04:41:59;;;;;;;6.75;6.07;;;;;20.30;94591.00;;;;7387726;19;20168;-74
2022/07/24 04:44:32;;;;;;;6.82;6.22;;;;;20.40;94581.00;;;;7389831;19;20145;-74
2022/07/24 04:47:00;;;;;;;9.00;6.57;;;;;20.40;94583.00;;;;7387732;19;20157;-74
2022/07/24 04:49:28;;;;;;;7.28;6.25;;;;;20.50;94583.00;;;;7396358;19;20133;-73
2022/07/24 04:52:02;;;;;;;7.57;6.78;;;;;20.70;94584.00;;;;7397098;19;20125;-74
2022/07/24 04:54:35;;;;;;;8.75;6.55;;;;;20.80;94579.00;;;;7397177;19;20643;-74
2022/07/24 04:57:09;;;;;;;6.88;6.20;;;;;21.00;94584.00;;;;7397714;19;20933;-74
2022/07/24 04:59:37;;;;;;;8.90;6.03;;;;;20.90;94587.00;;;;7394969;19;20133;-74
2022/07/24 05:02:05;;;;;;;7.90;6.43;;;;;20.90;94594.00;;;;7395449;19;20503;-73
2022/07/24 05:04:40;;;;;;;7.05;6.32;;;;;20.80;94594.00;;;;7399578;19;20174;-74
2022/07/24 05:07:22;;;;;;;9.40;7.03;;;;;20.80;94600.00;;;;7397189;19;20203;-76
2022/07/24 05:09:58;;;;;;;7.20;6.47;;;;;20.50;94600.00;;;;7398923;19;20164;-74
2022/07/24 05:12:26;;;;;;;8.65;6.70;;;;;20.60;94599.00;;;;7396620;19;20164;-72
2022/07/24 05:14:54;;;;;;;8.00;6.32;;;;;20.70;94591.00;;;;7401209;19;20132;-73
2022/07/24 05:17:29;;;;;;;7.43;6.45;;;;;20.80;94599.00;;;;7397778;19;20148;-72
2022/07/24 05:19:57;;;;;;;7.47;6.78;;;;;20.90;94592.00;;;;7397643;19;20502;-73
2022/07/24 05:22:25;;;;;;;8.02;6.95;;;;;20.80;94593.00;;;;7395566;19;20519;-72
2022/07/24 05:25:00;;;;;;;7.28;6.30;;;;;20.90;94600.00;;;;7399302;19;20148;-72
2022/07/24 05:27:28;;;;;;;8.50;6.75;;;;;20.90;94594.00;;;;7399378;19;20153;-72
2022/07/24 05:29:55;;;;;;;7.40;6.60;;;;;20.80;94600.00;;;;7398114;19;20125;-72
2022/07/24 05:32:30;;;;;;;9.45;7.57;;;;;20.60;94598.00;;;;7397870;19;20265;-71
2022/07/24 05:34:58;;;;;;;9.57;6.60;;;;;20.50;94593.00;;;;7399976;19;20524;-73
2022/07/24 05:37:26;;;;;;;7.95;7.10;;;;;20.40;94591.00;;;;7398165;19;20539;-72
2022/07/24 05:40:00;;;;;;;7.45;6.75;;;;;20.30;94598.00;;;;7398215;19;20811;-72
2022/07/24 05:42:28;;;;;;;9.13;7.15;;;;;20.20;94598.00;;;;7395566;19;20662;-73
2022/07/24 05:44:56;;;;;;;8.02;6.55;;;;;20.20;94595.00;;;;7398387;19;20492;-72
2022/07/24 05:47:36;;;;;;;7.72;6.85;;;;;20.00;94603.00;;;;7398723;19;20574;-72
2022/07/24 05:50:08;;;;;;;8.32;6.68;;;;;19.90;94612.00;;;;7396285;19;20705;-73
2022/07/24 05:52:42;;;;;;;7.47;6.68;;;;;19.90;94609.00;;;;7398375;19;20152;-73
2022/07/24 05:55:10;;;;;;;9.18;7.35;;;;;19.90;94613.00;;;;7400380;19;20545;-73
2022/07/24 05:57:45;;;;;;;7.65;6.50;;;;;19.90;94614.00;;;;7397991;19;20145;-73
2022/07/24 06:00:19;;;;;;;9.30;6.68;;;;;19.80;94610.00;;;;7397492;19;20144;-72
2022/07/24 06:02:50;;;;;;;8.10;7.13;;;;;19.80;94607.00;;;;7397319;19;20624;-73
2022/07/24 06:05:18;;;;;;;7.95;6.90;;;;;19.80;94607.00;;;;7398886;19;20156;-73
2022/07/24 06:07:58;;;;;;;12.13;6.78;;;;;19.70;94611.00;;;;7391332;19;20535;-73
2022/07/24 06:10:27;;;;;;;7.70;6.82;;;;;19.70;94603.00;;;;7396691;19;20152;-72
2022/07/24 06:13:01;;;;;;;6.72;6.13;;;;;19.80;94607.00;;;;7395726;19;20677;-73
2022/07/24 06:15:29;;;;;;;7.47;6.57;;;;;19.70;94617.00;;;;7398441;19;20164;-72
2022/07/24 06:17:57;;;;;;;8.15;6.55;;;;;19.70;94612.00;;;;7397203;19;20491;-72
2022/07/24 06:20:31;;;;;;;9.57;6.93;;;;;19.70;94606.00;;;;7395461;19;21016;-72
2022/07/24 06:22:59;;;;;;;7.85;7.05;;;;;19.80;94606.00;;;;7398135;19;20148;-73
2022/07/24 06:25:27;;;;;;;7.80;7.10;;;;;19.80;94607.00;;;;7396802;19;20145;-72
2022/07/24 06:28:01;;;;;;;7.60;6.90;;;;;19.80;94605.00;;;;7396662;19;20524;-71
2022/07/24 06:30:29;;;;;;;7.35;6.65;;;;;20.00;94603.00;;;;7392906;19;20646;-72
2022/07/24 06:32:59;;;;;;;8.20;7.40;;;;;20.20;94603.00;;;;7395867;19;20152;-72
2022/07/24 06:35:34;;;;;;;7.55;6.88;;;;;20.20;94606.00;;;;7393140;19;20208;-71
2022/07/24 06:38:02;;;;;;;7.60;6.80;;;;;20.70;94595.00;;;;7391494;19;20168;-73
2022/07/24 06:40:30;;;;;;;7.90;7.10;;;;;21.30;94596.00;;;;7394776;19;20140;-73
2022/07/24 06:43:04;;;;;;;9.32;6.90;;;;;21.90;94588.00;;;;7395234;19;20159;-72
2022/07/24 06:45:32;;;;;;;8.75;7.03;;;;;22.60;94580.00;;;;7393263;19;20219;-72
2022/07/24 06:48:02;;;;;;;8.05;7.25;;;;;23.20;94575.00;;;;7392728;19;20156;-73
2022/07/24 06:50:42;;;;;;;9.70;6.90;;;;;23.70;94573.00;;;;7395571;19;20244;-73
2022/07/24 06:53:11;;;;;;;7.85;6.85;;;;;23.90;94577.00;;;;7396239;19;20595;-73
2022/07/24 06:55:48;;;;;;;10.10;7.38;;;;;24.20;94574.00;;;;7393710;19;20138;-73
2022/07/24 06:58:15;;;;;;;9.90;6.90;;;;;24.20;94572.00;;;;7394945;19;20136;-70
2022/07/24 07:00:43;;;;;;;7.82;7.10;;;;;24.20;94570.00;;;;7395073;19;20591;-70
2022/07/24 07:03:18;;;;;;;7.80;7.00;;;;;24.30;94572.00;;;;7395728;19;20152;-72
2022/07/24 07:05:46;;;;;;;8.88;7.13;;;;;24.60;94570.00;;;;7394264;19;20515;-72
2022/07/24 07:08:16;;;;;;;7.35;6.53;;;;;25.00;94566.00;;;;7392371;19;20184;-73
2022/07/24 07:10:51;;;;;;;8.20;6.05;;;;;25.00;94563.00;;;;7393125;19;20132;-72
2022/07/24 07:13:22;;;;;;;7.93;6.68;;;;;25.40;94567.00;;;;7392700;19;20167;-73
2022/07/24 07:15:50;;;;;;;9.02;6.05;;;;;25.30;94573.00;;;;7393336;19;20445;-73
2022/07/24 07:18:27;;;;;;;7.70;6.03;;;;;25.10;94583.00;;;;7392879;19;20165;-72
2022/07/24 07:20:55;;;;;;;7.75;6.40;;;;;25.20;94583.00;;;;7391857;19;20485;-72
2022/07/24 07:23:26;;;;;;;7.75;6.22;;;;;25.30;94582.00;;;;7394119;19;20171;-71
2022/07/24 07:26:00;;;;;;;7.97;6.53;;;;;25.40;94584.00;;;;7394402;19;20490;-73
2022/07/24 07:28:28;;;;;;;6.80;6.10;;;;;25.50;94582.00;;;;7391018;19;20233;-73
2022/07/24 07:30:56;;;;;;;10.80;6.03;;;;;25.40;94588.00;;;;7393739;19;20168;-71
2022/07/24 07:33:31;;;;;;;7.90;6.45;;;;;25.30;94589.00;;;;7392940;19;20605;-73
2022/07/24 07:36:00;;;;;;;7.88;5.95;;;;;25.50;94584.00;;;;7391783;19;20159;-74
2022/07/24 07:38:32;;;;;;;7.15;5.88;;;;;25.20;94599.00;;;;7388525;19;20159;-74
2022/07/24 07:41:06;;;;;;;7.25;6.20;;;;;24.60;94599.00;;;;7389820;19;20630;-72
2022/07/24 07:43:38;;;;;;;6.38;5.75;;;;;24.40;94594.00;;;;7392195;19;20153;-75
2022/07/24 07:46:08;;;;;;;6.68;6.07;;;;;25.00;94587.00;;;;7392671;19;20189;-72
2022/07/24 07:48:44;;;;;;;6.65;5.93;;;;;25.70;94585.00;;;;7390895;19;20139;-73
2022/07/24 07:51:12;;;;;;;6.57;5.97;;;;;26.20;94582.00;;;;7391288;19;20133;-73
2022/07/24 07:53:40;;;;;;;6.95;5.78;;;;;26.20;94576.00;;;;7391788;19;20156;-74
2022/07/24 07:56:14;;;;;;;11.85;6.40;;;;;25.90;94586.00;;;;7391494;19;20166;-73
2022/07/24 07:58:42;;;;;;;7.65;5.65;;;;;26.20;94584.00;;;;7389410;19;20154;-73
2022/07/24 08:01:11;;;;;;;6.97;5.57;;;;;26.50;94578.00;;;;7391359;19;20148;-75
2022/07/24 08:03:46;;;;;;;6.82;5.85;;;;;26.10;94587.00;;;;7390694;19;20527;-76
2022/07/24 08:06:20;;;;;;;7.03;6.32;;;;;26.10;94585.00;;;;7392071;19;20492;-74
2022/07/24 08:09:04;;;;;;;7.38;5.32;;;;;26.20;94588.00;;;;7389095;19;20507;-75
2022/07/24 08:11:32;;;;;;;6.15;5.03;;;;;26.40;94574.00;;;;7389215;19;20191;-75
2022/07/24 08:14:06;;;;;;;6.35;5.60;;;;;26.50;94573.00;;;;7390446;19;20333;-74
2022/07/24 08:16:33;;;;;;;9.25;5.75;;;;;26.50;94582.00;;;;7390057;19;20186;-75
2022/07/24 08:19:01;;;;;;;5.75;5.25;;;;;26.70;94578.00;;;;7392948;19;20521;-75
2022/07/24 08:21:37;;;;;;;6.53;5.22;;;;;26.90;94581.00;;;;7391666;19;20156;-73
2022/07/24 08:24:05;;;;;;;9.68;5.40;;;;;27.00;94572.00;;;;7396704;19;20472;-74
2022/07/24 08:26:34;;;;;;;7.10;5.47;;;;;27.00;94573.00;;;;7398495;19;20178;-75
2022/07/24 08:29:09;;;;;;;7.00;6.07;;;;;27.50;94574.00;;;;7398100;19;20161;-74
2022/07/24 08:31:36;;;;;;;7.70;5.43;;;;;27.90;94569.00;;;;7397547;19;20148;-75
2022/07/24 08:34:04;;;;;;;5.93;5.38;;;;;28.20;94566.00;;;;7397439;19;20145;-71
2022/07/24 08:36:39;;;;;;;7.55;6.07;;;;;28.50;94567.00;;;;7398029;19;20152;-73
2022/07/24 08:39:07;;;;;;;6.22;5.63;;;;;28.40;94570.00;;;;7398070;19;20163;-73
2022/07/24 08:41:38;;;;;;;6.65;5.88;;;;;28.50;94574.00;;;;7395838;19;20482;-74
2022/07/24 08:44:12;;;;;;;6.32;5.78;;;;;28.50;94565.00;;;;7396461;19;20172;-74
2022/07/24 08:46:41;;;;;;;9.50;5.90;;;;;28.50;94582.00;;;;7396812;19;20156;-74
2022/07/24 08:49:12;;;;;;;5.95;5.35;;;;;27.90;94586.00;;;;7398717;19;20611;-75
2022/07/24 08:51:51;;;;;;;9.23;5.65;;;;;27.00;94587.00;;;;7397525;19;20610;-75
2022/07/24 08:54:19;;;;;;;8.38;5.82;;;;;26.30;94596.00;;;;7399489;19;20137;-73
2022/07/24 08:56:49;;;;;;;7.63;5.30;;;;;26.20;94600.00;;;;7398247;19;20145;-74
2022/07/24 08:59:24;;;;;;;6.35;5.75;;;;;26.20;94603.00;;;;7396877;19;20156;-75
2022/07/24 09:01:53;;;;;;;7.22;6.10;;;;;26.00;94599.00;;;;7396110;19;20168;-74
2022/07/24 09:04:44;;;;;;;6.05;5.50;;;;;25.90;94605.00;;;;7394816;19;20520;-74
2022/07/24 09:07:35;;;;;;;6.65;6.03;;;;;25.80;94604.00;;;;7395809;19;20515;-74
2022/07/24 09:10:12;;;;;;;6.40;5.50;;;;;25.80;94606.00;;;;7394819;19;20159;-74
2022/07/24 09:12:48;;;;;;;8.88;6.10;;;;;25.80;94593.00;;;;7392929;19;20687;-73
2022/07/24 09:15:23;;;;;;;6.38;5.78;;;;;26.90;94584.00;;;;7398457;19;20537;-73
2022/07/24 09:17:59;;;;;;;6.88;6.18;;;;;27.20;94601.00;;;;7394901;19;20145;-73
2022/07/24 09:20:28;;;;;;;6.47;5.88;;;;;26.90;94608.00;;;;7394067;19;20164;-73
2022/07/24 09:22:59;;;;;;;8.23;6.43;;;;;26.90;94603.00;;;;7395327;19;20628;-74
2022/07/24 09:25:35;;;;;;;7.55;6.22;;;;;28.00;94581.00;;;;7396304;19;20178;-74
2022/07/24 09:28:04;;;;;;;7.30;6.00;;;;;29.10;94571.00;;;;7394483;19;20140;-74
2022/07/24 09:30:37;;;;;;;6.72;6.03;;;;;29.80;94571.00;;;;7395753;19;20145;-74
2022/07/24 09:33:18;;;;;;;6.63;5.82;;;;;29.80;94570.00;;;;7396014;19;20144;-75
2022/07/24 09:35:48;;;;;;;6.70;6.05;;;;;29.30;94584.00;;;;7393927;19;20152;-75
2022/07/24 09:38:25;;;;;;;7.82;6.43;;;;;28.90;94586.00;;;;7397050;19;20148;-73
2022/07/24 09:40:55;;;;;;;7.90;6.20;;;;;28.70;94589.00;;;;7395541;19;20321;-75
2022/07/24 09:43:32;;;;;;;6.32;5.65;;;;;28.70;94573.00;;;;7390847;19;20136;-74
2022/07/24 09:46:11;;;;;;;6.60;5.97;;;;;29.40;94569.00;;;;7395196;19;20137;-74
2022/07/24 09:48:59;;;;;;;6.70;6.05;;;;;30.20;94560.00;;;;7396577;19;20156;-74
2022/07/24 09:51:29;;;;;;;6.93;6.22;;;;;29.90;94567.00;;;;7397793;19;20132;-72
2022/07/24 09:54:03;;;;;;;6.57;5.97;;;;;30.30;94578.00;;;;7397053;19;20456;-73
2022/07/24 09:56:31;;;;;;;7.97;6.18;;;;;30.70;94566.00;;;;7395679;19;20160;-73
2022/07/24 09:59:00;;;;;;;8.32;6.32;;;;;31.30;94567.00;;;;7395671;19;20148;-74
2022/07/24 10:01:38;;;;;;;8.00;6.07;;;;;31.00;94572.00;;;;7397182;19;20125;-72
2022/07/24 10:04:06;;;;;;;6.30;5.80;;;;;31.00;94556.00;;;;7393221;19;20154;-73
2022/07/24 10:06:37;;;;;;;7.45;6.60;;;;;31.10;94574.00;;;;7394002;19;20477;-72
2022/07/24 10:09:23;;;;;;;6.68;5.97;;;;;30.20;94579.00;;;;7393205;19;20619;-73
2022/07/24 10:11:55;;;;;;;7.55;6.85;;;;;28.70;94592.00;;;;7391917;19;20176;-73
2022/07/24 10:14:30;;;;;;;7.03;6.43;;;;;27.80;94593.00;;;;7394423;19;20208;-73
2022/07/24 10:17:07;;;;;;;7.38;6.57;;;;;27.80;94594.00;;;;7393669;19;20618;-73
2022/07/24 10:19:52;;;;;;;6.72;6.13;;;;;27.00;94596.00;;;;7392953;19;20152;-73
2022/07/24 10:22:23;;;;;;;7.63;6.35;;;;;27.00;94596.00;;;;7393003;19;20635;-75
2022/07/24 10:25:09;;;;;;;7.03;6.35;;;;;27.70;94580.00;;;;7392275;19;20484;-72
2022/07/24 10:27:38;;;;;;;8.02;6.25;;;;;28.30;94577.00;;;;7393646;19;20438;-74
2022/07/24 10:30:12;;;;;;;6.90;6.18;;;;;29.30;94564.00;;;;7396118;19;20597;-75
2022/07/24 10:32:41;;;;;;;8.57;6.45;;;;;29.40;94556.00;;;;7396024;19;20133;-73
2022/07/24 10:35:19;;;;;;;6.57;5.85;;;;;29.20;94558.00;;;;7391918;19;20180;-73
2022/07/24 10:38:19;;;;;;;7.45;6.30;;;;;29.90;94558.00;;;;7391447;19;20153;-74
2022/07/24 10:40:50;;;;;;;6.82;6.22;;;;;29.80;94556.00;;;;7392646;19;20173;-73
2022/07/24 10:43:25;;;;;;;9.00;6.30;;;;;30.60;94551.00;;;;7393819;19;20128;-72
2022/07/24 10:45:55;;;;;;;7.35;5.95;;;;;31.40;94549.00;;;;7390519;19;20151;-73
2022/07/24 10:48:24;;;;;;;8.73;6.28;;;;;32.00;94542.00;;;;7393517;19;20136;-73
2022/07/24 10:51:02;;;;;;;7.22;6.53;;;;;32.40;94541.00;;;;7395312;19;20128;-73
2022/07/24 10:53:37;;;;;;;7.00;6.40;;;;;32.60;94548.00;;;;7394981;19;20576;-74
2022/07/24 10:56:38;;;;;;;7.20;6.45;;;;;32.50;94543.00;;;;7392107;19;20144;-74
2022/07/24 10:59:07;;;;;;;7.65;6.32;;;;;32.00;94563.00;;;;7393627;19;20523;-73
2022/07/24 11:01:47;;;;;;;7.63;6.45;;;;;31.00;94572.00;;;;7391359;19;20136;-74
2022/07/24 11:04:23;;;;;;;6.93;6.22;;;;;30.20;94567.00;;;;7391245;19;20159;-74
2022/07/24 11:07:18;;;;;;;6.75;6.15;;;;;29.70;94577.00;;;;7390531;19;20155;-73
2022/07/24 11:09:56;;;;;;;7.10;6.50;;;;;29.00;94585.00;;;;7391447;19;20515;-75
2022/07/24 11:12:33;;;;;;;6.88;6.28;;;;;28.30;94579.00;;;;7390157;19;20179;-74
2022/07/24 11:18:14;;;;;;;8.77;6.65;;;;;28.50;94584.00;;;;7394037;19;20149;-73
2022/07/24 11:20:42;;;;;;;7.30;6.55;;;;;28.10;94578.00;;;;7390594;19;20613;-75
2022/07/24 11:23:21;;;;;;;6.80;6.10;;;;;29.00;94556.00;;;;7391556;19;20128;-74
2022/07/24 11:25:50;;;;;;;6.80;6.18;;;;;30.40;94553.00;;;;7394639;19;20156;-72
2022/07/24 11:28:24;;;;;;;7.40;6.80;;;;;31.10;94542.00;;;;7392046;19;20591;-73
2022/07/24 11:30:52;;;;;;;7.05;6.45;;;;;31.60;94541.00;;;;7390919;19;20195;-73
2022/07/24 11:33:27;;;;;;;7.38;6.43;;;;;31.80;94533.00;;;;7391165;19;20144;-73
2022/07/24 11:36:08;;;;;;;8.10;6.60;;;;;32.30;94536.00;;;;7391076;19;20171;-74
2022/07/24 11:38:37;;;;;;;6.70;6.00;;;;;32.80;94526.00;;;;7391734;19;20147;-73
2022/07/24 11:41:11;;;;;;;7.13;6.53;;;;;32.60;94545.00;;;;7390969;19;20147;-75
2022/07/24 11:43:53;;;;;;;7.03;6.43;;;;;32.40;94522.00;;;;7386343;19;20173;-74
2022/07/24 11:46:39;;;;;;;7.53;6.82;;;;;32.70;94536.00;;;;7390361;19;20164;-73
2022/07/24 11:49:09;;;;;;;7.18;6.50;;;;;31.70;94542.00;;;;7389519;19;20196;-74
2022/07/24 11:51:46;;;;;;;8.60;6.32;;;;;32.00;94519.00;;;;7389620;19;20171;-73
2022/07/24 11:54:15;;;;;;;8.18;6.38;;;;;32.60;94516.00;;;;7391988;19;20128;-74
2022/07/24 11:56:42;;;;;;;7.10;6.40;;;;;32.20;94517.00;;;;7384612;19;20211;-73
2022/07/24 11:59:31;;;;;;;7.90;6.35;;;;;31.60;94526.00;;;;7392014;19;20159;-74
2022/07/24 12:02:08;;;;;;;7.30;6.70;;;;;30.30;94527.00;;;;7393196;19;20607;-73
2022/07/24 12:04:43;;;;;;;7.07;5.88;;;;;29.70;94519.00;;;;7389644;19;20158;-73
2022/07/24 12:07:26;;;;;;;7.05;6.45;;;;;29.70;94515.00;;;;7396095;19;20124;-73
2022/07/24 12:10:02;;;;;;;7.65;6.85;;;;;30.70;94506.00;;;;7392723;19;20160;-74
2022/07/24 12:12:40;;;;;;;7.82;5.82;;;;;30.60;94521.00;;;;7390337;19;20164;-73
2022/07/24 12:15:16;;;;;;;7.97;6.70;;;;;30.10;94519.00;;;;7394596;19;20140;-75
2022/07/24 12:18:07;;;;;;;7.60;6.40;;;;;28.90;94518.00;;;;7392443;19;20153;-73
2022/07/24 12:20:44;;;;;;;6.80;6.30;;;;;28.90;94522.00;;;;7392977;19;20149;-75
2022/07/24 12:23:16;;;;;;;7.53;6.55;;;;;29.10;94518.00;;;;7391691;19;20505;-72
2022/07/24 12:25:50;;;;;;;7.07;6.40;;;;;29.00;94507.00;;;;7390477;19;20149;-74
2022/07/24 12:28:19;;;;;;;7.25;6.65;;;;;29.40;94518.00;;;;7393850;19;20145;-74
2022/07/24 12:30:52;;;;;;;7.53;6.93;;;;;29.50;94512.00;;;;7392307;19;20523;-75
2022/07/24 12:33:29;;;;;;;7.38;6.68;;;;;29.20;94507.00;;;;7394762;19;20737;-74
2022/07/24 12:36:10;;;;;;;8.80;7.20;;;;;29.60;94481.00;;;;7392441;19;20160;-75
2022/07/24 12:38:52;;;;;;;9.45;6.72;;;;;30.10;94476.00;;;;7392844;19;20159;-74
2022/07/24 12:41:27;;;;;;;6.40;5.78;;;;;31.10;94468.00;;;;7394167;19;20168;-75
2022/07/24 12:44:04;;;;;;;7.13;6.07;;;;;32.50;94463.00;;;;7389419;19;20135;-74
2022/07/24 12:46:37;;;;;;;6.82;6.20;;;;;32.90;94462.00;;;;7391964;19;20141;-74